sensor_id;sensor_type;location;lat;lon;timestamp;pressure;altitude;pressure_sealevel;temperature;humidity
36600;BME280;35385;55.668;37.508;2023-08-31T00:00:45;99266.22;;;15.89;100.00
36600;BME280;35385;55.668;37.508;2023-08-31T00:01:46;99255.66;;;15.79;100.00
36600;BME280;35385;55.668;37.508;2023-08-31T00:02:48;99270.44;;;15.91;100.00
36600;BME280;35385;55.668;37.508;2023-08-31T00:03:49;99277.16;;;15.87;100.00
36600;BME280;35385;55.668;37.508;2023-08-31T00:04:51;99279.00;;;15.87;100.00
36600;BME280;35385;55.668;37.508;2023-08-31T00:05:53;99273.16;;;15.83;100.00
36600;BME280;35385;55.668;37.508;2023-08-31T00:06:54;99270.28;;;15.77;100.00
36600;BME280;35385;55.668;37.508;2023-08-31T00:07:54;99274.16;;;15.82;100.00
36600;BME280;35385;55.668;37.508;2023-08-31T00:08:56;99276.31;;;15.87;100.00
36600;BME280;35385;55.668;37.508;2023-08-31T00:09:56;99276.16;;;15.88;100.00
36600;BME280;35385;55.668;37.508;2023-08-31T00:10:58;99271.97;;;15.86;100.00
36600;BME280;35385;55.668;37.508;2023-08-31T00:12:01;99278.00;;;15.88;100.00
36600;BME280;35385;55.668;37.508;2023-08-31T00:13:02;99270.94;;;15.87;100.00
36600;BME280;35385;55.668;37.508;2023-08-31T00:14:04;99280.22;;;15.84;100.00
36600;BME280;35385;55.668;37.508;2023-08-31T00:15:05;99279.53;;;15.90;100.00
36600;BME280;35385;55.668;37.508;2023-08-31T00:16:06;99281.22;;;15.91;100.00
36600;BME280;35385;55.668;37.508;2023-08-31T00:17:09;99260.69;;;15.82;100.00
36600;BME280;35385;55.668;37.508;2023-08-31T00:18:09;99258.69;;;15.84;100.00
36600;BME280;35385;55.668;37.508;2023-08-31T00:19:11;99285.94;;;15.98;100.00
36600;BME280;35385;55.668;37.508;2023-08-31T00:20:11;99281.38;;;15.98;100.00
36600;BME280;35385;55.668;37.508;2023-08-31T00:21:13;99284.25;;;15.97;100.00
36600;BME280;35385;55.668;37.508;2023-08-31T00:22:13;99266.38;;;15.87;100.00
36600;BME280;35385;55.668;37.508;2023-08-31T00:23:14;99278.34;;;15.93;100.00
36600;BME280;35385;55.668;37.508;2023-08-31T00:24:14;99280.03;;;15.94;100.00
36600;BME280;35385;55.668;37.508;2023-08-31T00:25:15;99263.22;;;15.84;100.00
36600;BME280;35385;55.668;37.508;2023-08-31T00:26:16;99271.63;;;15.97;100.00
36600;BME280;35385;55.668;37.508;2023-08-31T00:27:16;99280.88;;;15.95;100.00
36600;BME280;35385;55.668;37.508;2023-08-31T00:28:17;99281.53;;;15.88;100.00
36600;BME280;35385;55.668;37.508;2023-08-31T00:29:18;99280.69;;;15.88;100.00
36600;BME280;35385;55.668;37.508;2023-08-31T00:30:20;99272.47;;;15.81;100.00
36600;BME280;35385;55.668;37.508;2023-08-31T00:31:21;99250.28;;;15.71;100.00
36600;BME280;35385;55.668;37.508;2023-08-31T00:32:21;99263.03;;;15.77;100.00
36600;BME280;35385;55.668;37.508;2023-08-31T00:33:22;99267.09;;;15.81;100.00
36600;BME280;35385;55.668;37.508;2023-08-31T00:34:22;99276.66;;;15.76;100.00
36600;BME280;35385;55.668;37.508;2023-08-31T00:35:23;99263.53;;;15.73;100.00
36600;BME280;35385;55.668;37.508;2023-08-31T00:36:24;99268.44;;;15.77;100.00
36600;BME280;35385;55.668;37.508;2023-08-31T00:37:25;99272.97;;;15.77;100.00
36600;BME280;35385;55.668;37.508;2023-08-31T00:38:25;99275.50;;;15.78;100.00
36600;BME280;35385;55.668;37.508;2023-08-31T00:39:26;99279.72;;;15.81;100.00
36600;BME280;35385;55.668;37.508;2023-08-31T00:40:28;99277.50;;;15.76;100.00
36600;BME280;35385;55.668;37.508;2023-08-31T00:41:40;99278.19;;;15.78;100.00
36600;BME280;35385;55.668;37.508;2023-08-31T00:42:40;99280.22;;;15.84;100.00
36600;BME280;35385;55.668;37.508;2023-08-31T00:43:42;99285.25;;;15.87;100.00
36600;BME280;35385;55.668;37.508;2023-08-31T00:44:42;99286.94;;;15.88;100.00
36600;BME280;35385;55.668;37.508;2023-08-31T00:45:44;99249.94;;;15.66;100.00
36600;BME280;35385;55.668;37.508;2023-08-31T00:46:45;99284.06;;;15.90;100.00
36600;BME280;35385;55.668;37.508;2023-08-31T00:47:46;99276.84;;;15.82;100.00
36600;BME280;35385;55.668;37.508;2023-08-31T00:48:50;99277.16;;;15.87;100.00
36600;BME280;35385;55.668;37.508;2023-08-31T00:49:50;99260.69;;;15.74;100.00
36600;BME280;35385;55.668;37.508;2023-08-31T00:50:51;99275.66;;;15.77;100.00
36600;BME280;35385;55.668;37.508;2023-08-31T00:51:52;99251.09;;;15.64;100.00
36600;BME280;35385;55.668;37.508;2023-08-31T00:52:53;99272.47;;;15.73;100.00
36600;BME280;35385;55.668;37.508;2023-08-31T00:53:54;99272.13;;;15.76;100.00
36600;BME280;35385;55.668;37.508;2023-08-31T00:54:55;99276.19;;;15.72;100.00
36600;BME280;35385;55.668;37.508;2023-08-31T00:55:56;99280.22;;;15.76;100.00
36600;BME280;35385;55.668;37.508;2023-08-31T00:56:57;99276.84;;;15.82;100.00
36600;BME280;35385;55.668;37.508;2023-08-31T00:57:59;99268.13;;;15.72;100.00
36600;BME280;35385;55.668;37.508;2023-08-31T00:59:00;99237.78;;;15.54;100.00
36600;BME280;35385;55.668;37.508;2023-08-31T01:00:00;99276.19;;;15.80;100.00
36600;BME280;35385;55.668;37.508;2023-08-31T01:02:25;99290.63;;;15.87;100.00
36600;BME280;35385;55.668;37.508;2023-08-31T01:03:43;99270.81;;;15.72;100.00
36600;BME280;35385;55.668;37.508;2023-08-31T01:11:56;99255.47;;;15.73;100.00
36600;BME280;35385;55.668;37.508;2023-08-31T01:13:03;99282.91;;;15.84;100.00
36600;BME280;35385;55.668;37.508;2023-08-31T01:14:11;99257.84;;;15.68;100.00
36600;BME280;35385;55.668;37.508;2023-08-31T01:15:14;99276.50;;;15.77;100.00
36600;BME280;35385;55.668;37.508;2023-08-31T01:16:17;99260.69;;;15.66;100.00
36600;BME280;35385;55.668;37.508;2023-08-31T01:17:20;99277.84;;;15.73;100.00
36600;BME280;35385;55.668;37.508;2023-08-31T01:18:23;99265.59;;;15.71;100.00
36600;BME280;35385;55.668;37.508;2023-08-31T01:19:50;99284.41;;;15.87;100.00
36600;BME280;35385;55.668;37.508;2023-08-31T01:21:43;99281.53;;;15.88;100.00
36600;BME280;35385;55.668;37.508;2023-08-31T01:22:43;99277.19;;;15.79;100.00
36600;BME280;35385;55.668;37.508;2023-08-31T01:24:54;99276.66;;;15.76;100.00
36600;BME280;35385;55.668;37.508;2023-08-31T01:25:55;99283.22;;;15.73;100.00
36600;BME280;35385;55.668;37.508;2023-08-31T01:26:55;99258.66;;;15.60;100.00
36600;BME280;35385;55.668;37.508;2023-08-31T01:27:58;99276.19;;;15.72;100.00
36600;BME280;35385;55.668;37.508;2023-08-31T01:28:59;99258.34;;;15.55;100.00
36600;BME280;35385;55.668;37.508;2023-08-31T01:30:00;99274.50;;;15.63;100.00
36600;BME280;35385;55.668;37.508;2023-08-31T01:31:04;99264.22;;;15.59;100.00
36600;BME280;35385;55.668;37.508;2023-08-31T01:32:06;99283.41;;;15.64;100.00
36600;BME280;35385;55.668;37.508;2023-08-31T01:33:07;99248.88;;;15.51;100.00
36600;BME280;35385;55.668;37.508;2023-08-31T01:34:08;99273.81;;;15.61;100.00
36600;BME280;35385;55.668;37.508;2023-08-31T01:35:08;99279.03;;;15.63;100.00
36600;BME280;35385;55.668;37.508;2023-08-31T01:36:17;99276.19;;;15.64;100.00
36600;BME280;35385;55.668;37.508;2023-08-31T01:38:35;99281.19;;;15.51;100.00
36600;BME280;35385;55.668;37.508;2023-08-31T01:39:58;99281.88;;;15.53;100.00
36600;BME280;35385;55.668;37.508;2023-08-31T01:41:10;99279.19;;;15.61;100.00
36600;BME280;35385;55.668;37.508;2023-08-31T01:42:15;99279.00;;;15.54;100.00
36600;BME280;35385;55.668;37.508;2023-08-31T01:43:17;99278.03;;;15.55;100.00
36600;BME280;35385;55.668;37.508;2023-08-31T01:44:19;99246.69;;;15.38;100.00
36600;BME280;35385;55.668;37.508;2023-08-31T01:45:22;99276.97;;;15.48;100.00
36600;BME280;35385;55.668;37.508;2023-08-31T01:46:23;99281.34;;;15.49;100.00
36600;BME280;35385;55.668;37.508;2023-08-31T01:47:25;99259.31;;;15.38;100.00
36600;BME280;35385;55.668;37.508;2023-08-31T01:48:26;99270.06;;;15.46;100.00
36600;BME280;35385;55.668;37.508;2023-08-31T01:49:26;99269.97;;;15.55;100.00
36600;BME280;35385;55.668;37.508;2023-08-31T01:50:27;99242.84;;;15.41;100.00
36600;BME280;35385;55.668;37.508;2023-08-31T01:51:27;99256.28;;;15.49;100.00
36600;BME280;35385;55.668;37.508;2023-08-31T01:52:28;99234.75;;;15.41;100.00
36600;BME280;35385;55.668;37.508;2023-08-31T01:53:28;99264.72;;;15.54;100.00
36600;BME280;35385;55.668;37.508;2023-08-31T01:54:29;99269.56;;;15.50;100.00
36600;BME280;35385;55.668;37.508;2023-08-31T01:55:30;99267.06;;;15.49;100.00
36600;BME280;35385;55.668;37.508;2023-08-31T01:56:30;99270.41;;;15.51;100.00
36600;BME280;35385;55.668;37.508;2023-08-31T01:57:31;99263.88;;;15.53;100.00
36600;BME280;35385;55.668;37.508;2023-08-31T01:58:32;99258.47;;;15.53;100.00
36600;BME280;35385;55.668;37.508;2023-08-31T01:59:33;99248.88;;;15.35;100.00
36600;BME280;35385;55.668;37.508;2023-08-31T02:00:35;99255.78;;;15.37;100.00
36600;BME280;35385;55.668;37.508;2023-08-31T02:01:38;99248.69;;;15.44;100.00
36600;BME280;35385;55.668;37.508;2023-08-31T02:02:39;99256.44;;;15.47;100.00
36600;BME280;35385;55.668;37.508;2023-08-31T02:03:39;99267.09;;;15.57;100.00
36600;BME280;35385;55.668;37.508;2023-08-31T02:04:40;99263.88;;;15.53;100.00
36600;BME280;35385;55.668;37.508;2023-08-31T02:05:40;99268.56;;;15.51;100.00
36600;BME280;35385;55.668;37.508;2023-08-31T02:06:41;99274.13;;;15.50;100.00
36600;BME280;35385;55.668;37.508;2023-08-31T02:07:42;99274.28;;;15.48;100.00
36600;BME280;35385;55.668;37.508;2023-08-31T02:08:42;99256.63;;;15.38;100.00
36600;BME280;35385;55.668;37.508;2023-08-31T02:09:44;99264.00;;;15.44;100.00
36600;BME280;35385;55.668;37.508;2023-08-31T02:10:48;99262.16;;;15.44;100.00
36600;BME280;35385;55.668;37.508;2023-08-31T02:11:48;99260.00;;;15.40;100.00
36600;BME280;35385;55.668;37.508;2023-08-31T02:12:49;99260.16;;;15.38;100.00
36600;BME280;35385;55.668;37.508;2023-08-31T02:13:49;99250.56;;;15.36;100.00
36600;BME280;35385;55.668;37.508;2023-08-31T02:14:50;99251.06;;;15.31;100.00
36600;BME280;35385;55.668;37.508;2023-08-31T02:15:52;99237.94;;;15.20;100.00
36600;BME280;35385;55.668;37.508;2023-08-31T02:16:52;99257.63;;;15.29;100.00
36600;BME280;35385;55.668;37.508;2023-08-31T02:17:54;99249.69;;;15.19;100.00
36600;BME280;35385;55.668;37.508;2023-08-31T02:18:54;99260.97;;;15.23;100.00
36600;BME280;35385;55.668;37.508;2023-08-31T02:19:55;99261.47;;;15.18;100.00
36600;BME280;35385;55.668;37.508;2023-08-31T02:20:56;99260.63;;;15.17;100.00
36600;BME280;35385;55.668;37.508;2023-08-31T02:21:57;99250.19;;;15.06;100.00
36600;BME280;35385;55.668;37.508;2023-08-31T02:22:58;99255.91;;;15.19;100.00
36600;BME280;35385;55.668;37.508;2023-08-31T02:23:58;99255.25;;;15.17;100.00
36600;BME280;35385;55.668;37.508;2023-08-31T02:24:59;99264.00;;;15.19;100.00
36600;BME280;35385;55.668;37.508;2023-08-31T02:26:01;99259.09;;;15.15;100.00
36600;BME280;35385;55.668;37.508;2023-08-31T02:27:02;99265.00;;;15.10;100.00
36600;BME280;35385;55.668;37.508;2023-08-31T02:28:02;99240.25;;;14.99;100.00
36600;BME280;35385;55.668;37.508;2023-08-31T02:29:03;99269.00;;;15.06;100.00
36600;BME280;35385;55.668;37.508;2023-08-31T02:30:04;99270.69;;;15.07;100.00
36600;BME280;35385;55.668;37.508;2023-08-31T02:31:05;99247.31;;;15.00;100.00
36600;BME280;35385;55.668;37.508;2023-08-31T02:32:06;99276.75;;;15.09;100.00
36600;BME280;35385;55.668;37.508;2023-08-31T02:33:07;99270.69;;;15.07;100.00
36600;BME280;35385;55.668;37.508;2023-08-31T02:34:07;99249.81;;;14.93;100.00
36600;BME280;35385;55.668;37.508;2023-08-31T02:35:08;99271.00;;;15.04;100.00
36600;BME280;35385;55.668;37.508;2023-08-31T02:36:08;99262.09;;;15.04;100.00
36600;BME280;35385;55.668;37.508;2023-08-31T02:37:09;99278.06;;;15.05;100.00
36600;BME280;35385;55.668;37.508;2023-08-31T02:38:10;99270.34;;;15.02;100.00
36600;BME280;35385;55.668;37.508;2023-08-31T02:39:11;99284.47;;;15.04;100.00
36600;BME280;35385;55.668;37.508;2023-08-31T02:40:11;99271.69;;;15.06;100.00
36600;BME280;35385;55.668;37.508;2023-08-31T02:41:12;99260.41;;;14.95;100.00
36600;BME280;35385;55.668;37.508;2023-08-31T02:42:14;99257.03;;;14.93;100.00
36600;BME280;35385;55.668;37.508;2023-08-31T02:43:15;99277.06;;;15.06;100.00
36600;BME280;35385;55.668;37.508;2023-08-31T02:44:17;99279.59;;;15.08;100.00
36600;BME280;35385;55.668;37.508;2023-08-31T02:45:17;99282.13;;;15.09;100.00
36600;BME280;35385;55.668;37.508;2023-08-31T02:46:18;99271.84;;;15.05;100.00
36600;BME280;35385;55.668;37.508;2023-08-31T02:47:19;99278.06;;;15.05;100.00
36600;BME280;35385;55.668;37.508;2023-08-31T02:48:19;99278.28;;;15.12;100.00
36600;BME280;35385;55.668;37.508;2023-08-31T02:49:20;99275.44;;;15.13;100.00
36600;BME280;35385;55.668;37.508;2023-08-31T02:50:20;99279.44;;;15.09;100.00
36600;BME280;35385;55.668;37.508;2023-08-31T02:51:21;99283.50;;;15.13;100.00
36600;BME280;35385;55.668;37.508;2023-08-31T02:52:21;99274.72;;;15.03;100.00
36600;BME280;35385;55.668;37.508;2023-08-31T02:53:22;99282.28;;;15.00;100.00
36600;BME280;35385;55.668;37.508;2023-08-31T02:54:22;99269.69;;;15.00;100.00
36600;BME280;35385;55.668;37.508;2023-08-31T02:55:23;99272.53;;;14.99;100.00
36600;BME280;35385;55.668;37.508;2023-08-31T02:56:23;99275.06;;;15.00;100.00
36600;BME280;35385;55.668;37.508;2023-08-31T02:57:24;99275.88;;;15.01;100.00
36600;BME280;35385;55.668;37.508;2023-08-31T02:58:24;99264.97;;;15.02;100.00
36600;BME280;35385;55.668;37.508;2023-08-31T02:59:25;99271.19;;;15.03;100.00
36600;BME280;35385;55.668;37.508;2023-08-31T03:00:25;99252.50;;;14.93;100.00
36600;BME280;35385;55.668;37.508;2023-08-31T03:01:26;99275.38;;;15.05;100.00
36600;BME280;35385;55.668;37.508;2023-08-31T03:02:27;99272.88;;;15.04;100.00
36600;BME280;35385;55.668;37.508;2023-08-31T03:03:27;99273.03;;;15.02;100.00
36600;BME280;35385;55.668;37.508;2023-08-31T03:04:28;99276.72;;;15.01;100.00
36600;BME280;35385;55.668;37.508;2023-08-31T03:05:28;99278.06;;;14.97;100.00
36600;BME280;35385;55.668;37.508;2023-08-31T03:06:32;99281.44;;;14.99;100.00
36600;BME280;35385;55.668;37.508;2023-08-31T03:07:33;99270.84;;;14.98;100.00
36600;BME280;35385;55.668;37.508;2023-08-31T03:08:35;99267.28;;;14.89;100.00
36600;BME280;35385;55.668;37.508;2023-08-31T03:09:35;99269.31;;;14.95;100.00
36600;BME280;35385;55.668;37.508;2023-08-31T03:10:38;99269.66;;;14.92;100.00
36600;BME280;35385;55.668;37.508;2023-08-31T03:11:39;99267.97;;;14.91;100.00
36600;BME280;35385;55.668;37.508;2023-08-31T03:12:39;99266.78;;;14.85;100.00
36600;BME280;35385;55.668;37.508;2023-08-31T03:13:40;99265.25;;;14.91;100.00
36600;BME280;35385;55.668;37.508;2023-08-31T03:14:41;99265.94;;;14.93;100.00
36600;BME280;35385;55.668;37.508;2023-08-31T03:15:41;99251.81;;;14.83;100.00
36600;BME280;35385;55.668;37.508;2023-08-31T03:16:42;99254.00;;;14.88;100.00
36600;BME280;35385;55.668;37.508;2023-08-31T03:17:42;99242.38;;;14.87;100.00
36600;BME280;35385;55.668;37.508;2023-08-31T03:18:43;99258.88;;;14.92;100.00
36600;BME280;35385;55.668;37.508;2023-08-31T03:19:43;99269.47;;;14.94;100.00
36600;BME280;35385;55.668;37.508;2023-08-31T03:20:44;99263.25;;;14.93;100.00
36600;BME280;35385;55.668;37.508;2023-08-31T03:21:44;99272.53;;;14.99;100.00
36600;BME280;35385;55.668;37.508;2023-08-31T03:22:45;99237.38;;;14.84;100.00
36600;BME280;35385;55.668;37.508;2023-08-31T03:23:46;99260.94;;;14.98;100.00
36600;BME280;35385;55.668;37.508;2023-08-31T03:24:46;99264.78;;;15.04;100.00
36600;BME280;35385;55.668;37.508;2023-08-31T03:25:47;99265.97;;;15.01;100.00
36600;BME280;35385;55.668;37.508;2023-08-31T03:26:47;99258.56;;;15.03;100.00
36600;BME280;35385;55.668;37.508;2023-08-31T03:27:48;99242.59;;;14.94;100.00
36600;BME280;35385;55.668;37.508;2023-08-31T03:28:48;99260.25;;;15.04;100.00
36600;BME280;35385;55.668;37.508;2023-08-31T03:29:49;99241.75;;;14.93;100.00
36600;BME280;35385;55.668;37.508;2023-08-31T03:30:56;99246.81;;;14.96;100.00
36600;BME280;35385;55.668;37.508;2023-08-31T03:31:59;99263.25;;;15.01;100.00
36600;BME280;35385;55.668;37.508;2023-08-31T03:32:59;99264.31;;;15.00;100.00
36600;BME280;35385;55.668;37.508;2023-08-31T03:34:00;99255.34;;;14.92;100.00
36600;BME280;35385;55.668;37.508;2023-08-31T03:35:04;99244.44;;;14.85;100.00
36600;BME280;35385;55.668;37.508;2023-08-31T03:36:05;99256.41;;;14.99;100.00
36600;BME280;35385;55.668;37.508;2023-08-31T03:37:05;99248.66;;;14.96;100.00
36600;BME280;35385;55.668;37.508;2023-08-31T03:38:06;99254.03;;;15.04;100.00
36600;BME280;35385;55.668;37.508;2023-08-31T03:39:06;99255.72;;;15.05;100.00
36600;BME280;35385;55.668;37.508;2023-08-31T03:40:07;99264.31;;;15.16;100.00
36600;BME280;35385;55.668;37.508;2023-08-31T03:41:08;99256.59;;;15.13;100.00
36600;BME280;35385;55.668;37.508;2023-08-31T03:42:09;99261.78;;;15.15;100.00
36600;BME280;35385;55.668;37.508;2023-08-31T03:43:09;99260.28;;;15.20;100.00
36600;BME280;35385;55.668;37.508;2023-08-31T03:44:10;99263.34;;;15.26;100.00
36600;BME280;35385;55.668;37.508;2023-08-31T03:45:11;99267.88;;;15.33;100.00
36600;BME280;35385;55.668;37.508;2023-08-31T03:46:12;99257.94;;;15.34;100.00
36600;BME280;35385;55.668;37.508;2023-08-31T03:47:12;99246.88;;;15.29;100.00
36600;BME280;35385;55.668;37.508;2023-08-31T03:48:13;99252.41;;;15.35;100.00
36600;BME280;35385;55.668;37.508;2023-08-31T03:49:13;99272.28;;;15.50;100.00
36600;BME280;35385;55.668;37.508;2023-08-31T03:50:14;99270.81;;;15.56;100.00
36600;BME280;35385;55.668;37.508;2023-08-31T03:51:14;99276.88;;;15.58;100.00
36600;BME280;35385;55.668;37.508;2023-08-31T03:52:15;99274.97;;;15.59;100.00
36600;BME280;35385;55.668;37.508;2023-08-31T03:53:15;99279.19;;;15.61;100.00
36600;BME280;35385;55.668;37.508;2023-08-31T03:54:16;99251.59;;;15.51;100.00
36600;BME280;35385;55.668;37.508;2023-08-31T03:55:16;99278.03;;;15.64;100.00
36600;BME280;35385;55.668;37.508;2023-08-31T03:56:17;99274.16;;;15.58;100.00
36600;BME280;35385;55.668;37.508;2023-08-31T03:57:18;99281.88;;;15.53;100.00
36600;BME280;35385;55.668;37.508;2023-08-31T03:58:18;99285.25;;;15.55;100.00
36600;BME280;35385;55.668;37.508;2023-08-31T03:59:19;99277.19;;;15.63;100.00
36600;BME280;35385;55.668;37.508;2023-08-31T04:00:19;99277.53;;;15.68;100.00
36600;BME280;35385;55.668;37.508;2023-08-31T04:01:20;99274.84;;;15.68;100.00
36600;BME280;35385;55.668;37.508;2023-08-31T04:02:21;99278.22;;;15.70;100.00
36600;BME280;35385;55.668;37.508;2023-08-31T04:03:21;99286.28;;;15.70;100.00
36600;BME280;35385;55.668;37.508;2023-08-31T04:04:22;99281.22;;;15.67;100.00
36600;BME280;35385;55.668;37.508;2023-08-31T04:05:23;99278.03;;;15.72;100.00
36600;BME280;35385;55.668;37.508;2023-08-31T04:06:23;99257.63;;;15.53;100.00
36600;BME280;35385;55.668;37.508;2023-08-31T04:07:23;99282.25;;;15.66;100.00
36600;BME280;35385;55.668;37.508;2023-08-31T04:08:24;99286.63;;;15.67;100.00
36600;BME280;35385;55.668;37.508;2023-08-31T04:09:25;99284.44;;;15.71;100.00
36600;BME280;35385;55.668;37.508;2023-08-31T04:10:25;99282.25;;;15.66;100.00
36600;BME280;35385;55.668;37.508;2023-08-31T04:11:26;99264.56;;;15.55;100.00
36600;BME280;35385;55.668;37.508;2023-08-31T04:12:27;99282.38;;;15.73;100.00
36600;BME280;35385;55.668;37.508;2023-08-31T04:13:30;99264.72;;;15.62;100.00
36600;BME280;35385;55.668;37.508;2023-08-31T04:14:30;99286.97;;;15.72;100.00
36600;BME280;35385;55.668;37.508;2023-08-31T04:15:31;99290.31;;;15.74;100.00
36600;BME280;35385;55.668;37.508;2023-08-31T04:16:32;99292.34;;;15.72;100.00
36600;BME280;35385;55.668;37.508;2023-08-31T04:17:33;99292.00;;;15.75;100.00
36600;BME280;35385;55.668;37.508;2023-08-31T04:18:33;99288.63;;;15.73;100.00
36600;BME280;35385;55.668;37.508;2023-08-31T04:19:34;99292.00;;;15.75;100.00
36600;BME280;35385;55.668;37.508;2023-08-31T04:20:34;99289.63;;;15.80;100.00
36600;BME280;35385;55.668;37.508;2023-08-31T04:21:35;99289.97;;;15.77;100.00
36600;BME280;35385;55.668;37.508;2023-08-31T04:22:36;99293.00;;;15.82;100.00
36600;BME280;35385;55.668;37.508;2023-08-31T04:23:36;99281.22;;;15.75;100.00
36600;BME280;35385;55.668;37.508;2023-08-31T04:24:37;99263.41;;;15.58;100.00
36600;BME280;35385;55.668;37.508;2023-08-31T04:25:37;99289.47;;;15.74;100.00
36600;BME280;35385;55.668;37.508;2023-08-31T04:26:38;99298.53;;;15.73;100.00
36600;BME280;35385;55.668;37.508;2023-08-31T04:27:38;99288.78;;;15.64;100.00
36600;BME280;35385;55.668;37.508;2023-08-31T04:28:40;99304.63;;;15.67;100.00
36600;BME280;35385;55.668;37.508;2023-08-31T04:29:42;99303.44;;;15.69;100.00
36600;BME280;35385;55.668;37.508;2023-08-31T04:30:43;99282.25;;;15.66;100.00
36600;BME280;35385;55.668;37.508;2023-08-31T04:31:45;99295.69;;;15.74;100.00
36600;BME280;35385;55.668;37.508;2023-08-31T04:32:45;99291.81;;;15.77;100.00
36600;BME280;35385;55.668;37.508;2023-08-31T04:33:47;99295.88;;;15.81;100.00
36600;BME280;35385;55.668;37.508;2023-08-31T04:34:48;99284.06;;;15.74;100.00
36600;BME280;35385;55.668;37.508;2023-08-31T04:35:49;99296.00;;;15.87;100.00
36600;BME280;35385;55.668;37.508;2023-08-31T04:36:50;99299.22;;;15.91;100.00
36600;BME280;35385;55.668;37.508;2023-08-31T04:37:50;99283.41;;;15.80;100.00
36600;BME280;35385;55.668;37.508;2023-08-31T04:38:51;99300.91;;;15.92;100.00
36600;BME280;35385;55.668;37.508;2023-08-31T04:39:52;99300.91;;;15.92;100.00
36600;BME280;35385;55.668;37.508;2023-08-31T04:40:52;99273.81;;;15.85;100.00
36600;BME280;35385;55.668;37.508;2023-08-31T04:41:53;99295.69;;;15.99;100.00
36600;BME280;35385;55.668;37.508;2023-08-31T04:42:54;99287.94;;;15.96;100.00
36600;BME280;35385;55.668;37.508;2023-08-31T04:43:54;99294.81;;;16.06;100.00
36600;BME280;35385;55.668;37.508;2023-08-31T04:44:55;99295.00;;;16.13;100.00
36600;BME280;35385;55.668;37.508;2023-08-31T04:45:55;99292.28;;;16.21;100.00
36600;BME280;35385;55.668;37.508;2023-08-31T04:46:56;99273.41;;;16.21;100.00
36600;BME280;35385;55.668;37.508;2023-08-31T04:47:56;99297.31;;;16.40;100.00
36600;BME280;35385;55.668;37.508;2023-08-31T04:48:57;99291.03;;;16.48;100.00
36600;BME280;35385;55.668;37.508;2023-08-31T04:49:58;99274.72;;;16.41;100.00
36600;BME280;35385;55.668;37.508;2023-08-31T04:50:59;99297.44;;;16.55;100.00
36600;BME280;35385;55.668;37.508;2023-08-31T04:52:00;99287.78;;;16.60;100.00
36600;BME280;35385;55.668;37.508;2023-08-31T04:53:00;99299.59;;;16.59;100.00
36600;BME280;35385;55.668;37.508;2023-08-31T04:54:01;99284.78;;;16.55;100.00
36600;BME280;35385;55.668;37.508;2023-08-31T04:55:03;99305.00;;;16.68;100.00
36600;BME280;35385;55.668;37.508;2023-08-31T04:56:04;99290.16;;;16.64;100.00
36600;BME280;35385;55.668;37.508;2023-08-31T04:57:04;99297.25;;;16.73;100.00
36600;BME280;35385;55.668;37.508;2023-08-31T04:58:07;99292.59;;;16.89;100.00
36600;BME280;35385;55.668;37.508;2023-08-31T04:59:08;99290.97;;;17.11;100.00
36600;BME280;35385;55.668;37.508;2023-08-31T05:00:08;99291.91;;;17.26;100.00
36600;BME280;35385;55.668;37.508;2023-08-31T05:01:09;99287.00;;;17.30;100.00
36600;BME280;35385;55.668;37.508;2023-08-31T05:02:10;99291.22;;;17.24;100.00
36600;BME280;35385;55.668;37.508;2023-08-31T05:03:10;99296.31;;;17.19;100.00
36600;BME280;35385;55.668;37.508;2023-08-31T05:04:11;99293.44;;;17.21;100.00
36600;BME280;35385;55.668;37.508;2023-08-31T05:05:11;99292.50;;;17.06;100.00
36600;BME280;35385;55.668;37.508;2023-08-31T05:06:12;99274.03;;;16.94;100.00
36600;BME280;35385;55.668;37.508;2023-08-31T05:07:12;99293.22;;;17.00;100.00
36600;BME280;35385;55.668;37.508;2023-08-31T05:08:13;99292.91;;;16.94;100.00
36600;BME280;35385;55.668;37.508;2023-08-31T05:09:13;99295.94;;;17.00;100.00
36600;BME280;35385;55.668;37.508;2023-08-31T05:10:14;99295.25;;;16.98;100.00
36600;BME280;35385;55.668;37.508;2023-08-31T05:11:15;99290.88;;;16.96;100.00
36600;BME280;35385;55.668;37.508;2023-08-31T05:12:16;99297.13;;;16.97;100.00
36600;BME280;35385;55.668;37.508;2023-08-31T05:13:17;99295.75;;;17.01;100.00
36600;BME280;35385;55.668;37.508;2023-08-31T05:14:18;99282.78;;;16.96;100.00
36600;BME280;35385;55.668;37.508;2023-08-31T05:15:18;99289.13;;;17.04;100.00
36600;BME280;35385;55.668;37.508;2023-08-31T05:16:19;99293.41;;;16.98;100.00
36600;BME280;35385;55.668;37.508;2023-08-31T05:17:21;99287.41;;;16.88;100.00
36600;BME280;35385;55.668;37.508;2023-08-31T05:18:21;99289.53;;;16.92;100.00
36600;BME280;35385;55.668;37.508;2023-08-31T05:19:22;99286.06;;;16.84;100.00
36600;BME280;35385;55.668;37.508;2023-08-31T05:20:22;99272.56;;;16.84;100.00
36600;BME280;35385;55.668;37.508;2023-08-31T05:21:23;99295.53;;;17.11;100.00
36600;BME280;35385;55.668;37.508;2023-08-31T05:22:24;99289.47;;;17.31;100.00
36600;BME280;35385;55.668;37.508;2023-08-31T05:23:24;99290.97;;;17.65;100.00
36600;BME280;35385;55.668;37.508;2023-08-31T05:24:25;99296.78;;;17.99;100.00
36600;BME280;35385;55.668;37.508;2023-08-31T05:25:25;99287.69;;;18.30;100.00
36600;BME280;35385;55.668;37.508;2023-08-31T05:26:26;99293.78;;;18.61;100.00
36600;BME280;35385;55.668;37.508;2023-08-31T05:27:27;99293.50;;;18.86;100.00
36600;BME280;35385;55.668;37.508;2023-08-31T05:28:27;99297.47;;;19.04;100.00